createdAt,value
2018-02-10T00:01:26.144Z,73.53
2018-02-10T00:03:52.928Z,84.55
2018-02-10T00:06:19.753Z,59.03
2018-02-10T00:08:46.531Z,48.87
2018-02-10T00:11:13.342Z,37.95
2018-02-10T00:13:40.139Z,72.97
2018-02-10T00:16:06.921Z,59.63
2018-02-10T00:18:33.696Z,56.42
2018-02-10T00:21:00.500Z,39.92
2018-02-10T00:23:27.310Z,99.75
2018-02-10T00:25:55.121Z,51.88
2018-02-10T00:28:21.911Z,62.92
2018-02-10T00:30:48.665Z,96.78
2018-02-10T00:33:15.435Z,75.55
2018-02-10T00:35:42.194Z,71.22
2018-02-10T00:38:08.951Z,61.83
2018-02-10T00:40:35.774Z,77.68
2018-02-10T00:43:02.527Z,80.40
2018-02-10T00:45:29.297Z,59.90
2018-02-10T00:47:56.069Z,61.28
2018-02-10T00:50:22.870Z,78.03
2018-02-10T00:52:49.650Z,81.35
2018-02-10T00:55:16.459Z,51.28
2018-02-10T00:57:43.267Z,56.92
2018-02-10T01:00:10.037Z,61.92
2018-02-10T01:02:36.819Z,58.78
2018-02-10T01:05:04.236Z,66.35
2018-02-10T01:07:31.045Z,55.65
2018-02-10T01:09:57.840Z,81.05
2018-02-10T01:12:24.621Z,61.28
2018-02-10T01:14:51.403Z,80.50
2018-02-10T01:17:18.548Z,75.87
2018-02-10T01:19:45.294Z,65.93
2018-02-10T01:22:12.067Z,46.58
2018-02-10T01:24:38.845Z,67.90
2018-02-10T01:27:05.622Z,59.05
2018-02-10T01:29:32.425Z,60.83
2018-02-10T01:31:59.251Z,66.30
2018-02-10T01:34:26.043Z,59.13
2018-02-10T01:36:52.823Z,71.03
2018-02-10T01:39:19.588Z,62.15
2018-02-10T01:41:47.045Z,55.28
2018-02-10T01:44:13.826Z,66.97
2018-02-10T01:46:40.629Z,54.65
2018-02-10T01:49:08.249Z,58.50
2018-02-10T01:51:35.067Z,51.97
2018-02-10T01:54:01.866Z,59.58
2018-02-10T01:56:28.631Z,86.93
2018-02-10T01:58:55.411Z,50.85
2018-02-10T02:01:22.169Z,66.00
2018-02-10T02:03:48.953Z,73.28
2018-02-10T02:06:15.797Z,38.30
2018-02-10T02:08:42.575Z,55.00
2018-02-10T02:11:09.339Z,55.75
2018-02-10T02:13:36.520Z,56.90
2018-02-10T02:16:03.269Z,44.28
2018-02-10T02:18:30.036Z,64.70
2018-02-10T02:20:56.817Z,69.32
2018-02-10T02:23:23.661Z,62.08
2018-02-10T02:25:51.384Z,59.25
2018-02-10T02:28:18.167Z,55.80
2018-02-10T02:30:44.959Z,62.92
2018-02-10T02:33:11.729Z,56.10
2018-02-10T02:35:38.523Z,48.15
2018-02-10T02:38:05.308Z,75.15
2018-02-10T02:40:32.120Z,68.03
2018-02-10T02:42:58.919Z,90.35
2018-02-10T02:45:25.690Z,66.25
2018-02-10T02:47:52.487Z,54.83
2018-02-10T02:50:20.007Z,66.53
2018-02-10T02:52:46.775Z,56.33
2018-02-10T02:55:13.535Z,63.95
2018-02-10T02:57:41.053Z,65.45
2018-02-10T03:00:08.574Z,60.35
2018-02-10T03:02:35.355Z,60.65
2018-02-10T03:05:02.108Z,53.03
2018-02-10T03:07:28.872Z,54.67
2018-02-10T03:09:55.657Z,58.85
2018-02-10T03:12:22.450Z,77.43
2018-02-10T03:14:49.224Z,73.28
2018-02-10T03:17:15.995Z,71.68
2018-02-10T03:19:42.809Z,46.22
2018-02-10T03:22:09.591Z,48.72
2018-02-10T03:24:36.351Z,75.30
2018-02-10T03:27:03.175Z,75.32
2018-02-10T03:29:29.954Z,74.75
2018-02-10T03:31:56.716Z,57.83
2018-02-10T03:34:23.471Z,68.15
2018-02-10T03:36:50.238Z,62.15
2018-02-10T03:39:17.019Z,60.35
2018-02-10T03:41:43.812Z,68.72
2018-02-10T03:44:10.603Z,59.47
2018-02-10T03:46:37.377Z,54.92
2018-02-10T03:49:04.140Z,67.82
2018-02-10T03:51:30.931Z,64.00
2018-02-10T03:53:57.699Z,52.38
2018-02-10T03:56:24.480Z,68.05
2018-02-10T03:58:51.327Z,71.90
2018-02-10T04:01:18.112Z,46.25
2018-02-10T04:03:44.906Z,59.63
2018-02-10T04:06:11.699Z,51.75
2018-02-10T04:08:38.479Z,63.30
2018-02-10T04:11:05.309Z,70.12
2018-02-10T04:13:32.104Z,64.43
2018-02-10T04:15:58.925Z,48.85
2018-02-10T04:18:26.645Z,59.95
2018-02-10T04:20:53.420Z,60.40
2018-02-10T04:23:20.261Z,53.33
2018-02-10T04:25:47.102Z,49.88
2018-02-10T04:28:13.950Z,62.83
2018-02-10T04:30:40.795Z,67.30
2018-02-10T04:33:07.637Z,64.07
2018-02-10T04:35:34.420Z,71.50
2018-02-10T04:38:01.192Z,76.03
2018-02-10T04:40:27.988Z,55.45
2018-02-10T04:42:54.788Z,74.45
2018-02-10T04:45:21.607Z,44.83
2018-02-10T04:47:48.354Z,67.20
2018-02-10T04:50:15.170Z,61.25
2018-02-10T04:52:41.954Z,48.22
2018-02-10T04:55:08.711Z,71.37
2018-02-10T04:57:35.467Z,51.00
2018-02-10T05:00:02.610Z,43.08
2018-02-10T05:02:30.162Z,58.08
2018-02-10T05:04:57.060Z,56.15
2018-02-10T05:07:23.841Z,43.55
2018-02-10T05:09:50.621Z,65.82
2018-02-10T05:12:17.427Z,51.00
2018-02-10T05:14:45.145Z,63.22
2018-02-10T05:17:11.907Z,37.83
2018-02-10T05:19:38.691Z,47.60
2018-02-10T05:22:06.192Z,48.47
2018-02-10T05:24:32.998Z,47.80
2018-02-10T05:26:59.791Z,51.92
2018-02-10T05:29:26.573Z,41.37
2018-02-10T05:31:53.401Z,59.08
2018-02-10T05:34:20.162Z,58.83
2018-02-10T05:36:46.939Z,47.05
2018-02-10T05:39:13.690Z,55.60
2018-02-10T05:41:40.460Z,62.05
2018-02-10T05:44:07.245Z,49.58
2018-02-10T05:46:34.030Z,44.00
2018-02-10T05:49:00.809Z,52.50
2018-02-10T05:51:27.594Z,57.75
2018-02-10T05:53:54.978Z,46.80
2018-02-10T05:56:21.821Z,45.53
2018-02-10T05:58:48.578Z,48.08
2018-02-10T06:01:15.346Z,55.38
2018-02-10T06:03:42.107Z,50.83
2018-02-10T06:06:08.874Z,58.17
2018-02-10T06:08:35.665Z,56.15
2018-02-10T06:11:02.481Z,49.22
2018-02-10T06:13:29.797Z,56.47
2018-02-10T06:15:56.601Z,47.08
2018-02-10T06:18:23.389Z,60.95
2018-02-10T06:20:50.144Z,50.20
2018-02-10T06:23:16.949Z,46.88
2018-02-10T06:25:44.313Z,53.00
2018-02-10T06:28:11.066Z,46.65
2018-02-10T06:30:37.856Z,59.92
2018-02-10T06:33:04.836Z,52.20
2018-02-10T06:35:31.591Z,41.92
2018-02-10T06:37:58.356Z,58.35
2018-02-10T06:40:25.165Z,53.35
2018-02-10T06:42:52.628Z,43.47
2018-02-10T06:45:19.482Z,35.95
2018-02-10T06:47:46.303Z,66.35
2018-02-10T06:50:13.089Z,36.45
2018-02-10T06:52:39.859Z,79.28
2018-02-10T06:55:06.621Z,48.13
2018-02-10T06:57:33.387Z,69.20
2018-02-10T07:00:00.186Z,41.67
2018-02-10T07:02:27.668Z,64.32
2018-02-10T07:04:54.482Z,57.95
2018-02-10T07:07:22.331Z,64.25
2018-02-10T07:09:49.582Z,67.07
2018-02-10T07:12:16.952Z,49.00
2018-02-10T07:14:43.707Z,66.87
2018-02-10T07:17:10.522Z,62.47
2018-02-10T07:19:37.312Z,62.72
2018-02-10T07:22:04.115Z,68.40
2018-02-10T07:24:30.943Z,48.33
2018-02-10T07:26:57.992Z,46.20
2018-02-10T07:29:24.744Z,51.72
2018-02-10T07:31:51.522Z,54.78
2018-02-10T07:34:18.306Z,71.95
2018-02-10T07:36:45.110Z,51.30
2018-02-10T07:39:11.929Z,69.75
2018-02-10T07:41:38.791Z,60.05
2018-02-10T07:44:05.558Z,64.75
2018-02-10T07:46:32.333Z,63.05
2018-02-10T07:48:59.187Z,52.83
2018-02-10T07:51:26.737Z,54.55
2018-02-10T07:53:53.505Z,62.28
2018-02-10T07:56:20.295Z,72.53
2018-02-10T07:58:47.060Z,58.15
2018-02-10T08:01:13.850Z,56.20
2018-02-10T08:03:40.837Z,52.35
2018-02-10T08:06:07.611Z,58.90
2018-02-10T08:08:34.870Z,58.67
2018-02-10T08:11:01.801Z,71.20
2018-02-10T08:13:28.592Z,53.83
2018-02-10T08:15:56.069Z,56.10
2018-02-10T08:18:22.880Z,71.87
2018-02-10T08:20:49.698Z,72.20
2018-02-10T08:23:16.975Z,64.00
2018-02-10T08:25:43.776Z,63.40
2018-02-10T08:28:10.550Z,65.85
2018-02-10T08:30:37.371Z,61.40
2018-02-10T08:33:04.518Z,51.85
2018-02-10T08:35:31.450Z,61.05
2018-02-10T08:37:59.008Z,78.40
2018-02-10T08:40:25.801Z,79.85
2018-02-10T08:42:52.596Z,79.97
2018-02-10T08:45:19.374Z,78.70
2018-02-10T08:47:46.394Z,56.88
2018-02-10T08:50:13.373Z,60.75
2018-02-10T08:52:40.157Z,79.30
2018-02-10T08:55:06.975Z,81.75
2018-02-10T08:57:33.803Z,85.50
2018-02-10T09:00:00.604Z,70.15
2018-02-10T09:02:27.709Z,68.47
2018-02-10T09:04:54.516Z,68.15
2018-02-10T09:07:21.274Z,58.67
2018-02-10T09:09:48.046Z,79.65
2018-02-10T09:12:14.829Z,79.05
2018-02-10T09:14:41.747Z,59.78
2018-02-10T09:17:08.839Z,80.53
2018-02-10T09:19:36.207Z,67.47
2018-02-10T09:22:03.041Z,73.95
2018-02-10T09:24:29.825Z,77.65
2018-02-10T09:26:56.623Z,64.22
2018-02-10T09:29:23.405Z,82.22
2018-02-10T09:31:50.207Z,80.00
2018-02-10T09:34:16.955Z,70.53
2018-02-10T09:36:43.734Z,62.22
2018-02-10T09:39:10.744Z,72.20
2018-02-10T09:41:37.504Z,92.62
2018-02-10T09:44:04.286Z,69.03
2018-02-10T09:46:31.288Z,69.40
2018-02-10T09:48:58.051Z,76.70
2018-02-10T09:51:25.304Z,74.60
2018-02-10T09:53:52.444Z,70.68
2018-02-10T09:56:19.249Z,64.57
2018-02-10T09:58:46.015Z,96.18
2018-02-10T10:01:12.797Z,90.72
2018-02-10T10:03:39.573Z,77.97
2018-02-10T10:06:06.348Z,86.35
2018-02-10T10:08:33.132Z,83.95
2018-02-10T10:10:59.918Z,79.43
2018-02-10T10:13:27.176Z,78.50
2018-02-10T10:15:53.961Z,68.15
2018-02-10T10:18:20.827Z,75.50
2018-02-10T10:20:47.884Z,83.68
2018-02-10T10:23:15.258Z,79.18
2018-02-10T10:25:42.037Z,78.62
2018-02-10T10:28:08.876Z,78.50
2018-02-10T10:30:35.688Z,78.82
2018-02-10T10:33:02.452Z,76.35
2018-02-10T10:35:29.202Z,71.10
2018-02-10T10:37:55.992Z,83.60
2018-02-10T10:40:22.902Z,73.20
2018-02-10T10:42:49.997Z,59.97
2018-02-10T10:45:16.772Z,85.28
2018-02-10T10:47:43.576Z,82.62
2018-02-10T10:50:14.069Z,85.87
2018-02-10T10:52:40.822Z,77.85
2018-02-10T10:55:07.583Z,87.53
2018-02-10T10:57:34.346Z,78.57
2018-02-10T11:00:01.129Z,92.88
2018-02-10T11:02:28.214Z,95.30
2018-02-10T11:04:55.023Z,60.67
2018-02-10T11:07:21.793Z,84.60
2018-02-10T11:09:48.589Z,94.63
2018-02-10T11:12:15.398Z,71.95
2018-02-10T11:14:42.894Z,34.38
2018-02-10T11:17:10.340Z,81.85
2018-02-10T11:19:37.145Z,67.37
2018-02-10T11:22:03.939Z,88.07
2018-02-10T11:24:31.031Z,80.93
2018-02-10T11:26:57.804Z,89.67
2018-02-10T11:29:25.577Z,73.25
2018-02-10T11:31:52.383Z,75.50
2018-02-10T11:34:19.168Z,59.97
2018-02-10T11:36:45.968Z,71.57
2018-02-10T11:39:12.969Z,69.97
2018-02-10T11:41:40.371Z,78.73
2018-02-10T11:44:07.170Z,55.72
2018-02-10T11:46:33.968Z,87.60
2018-02-10T11:49:00.726Z,80.62
2018-02-10T11:51:27.607Z,75.93
2018-02-10T11:53:54.687Z,71.97
2018-02-10T11:56:21.512Z,48.90
2018-02-10T11:58:48.290Z,55.55
2018-02-10T12:01:15.068Z,27.87
2018-02-10T12:03:41.828Z,61.37
2018-02-10T12:06:09.146Z,66.20
2018-02-10T12:08:35.906Z,46.35
2018-02-10T12:11:02.717Z,70.07
2018-02-10T12:13:30.217Z,67.22
2018-02-10T12:15:56.995Z,67.10
2018-02-10T12:18:23.746Z,75.90
2018-02-10T12:20:50.495Z,82.00
2018-02-10T12:23:17.309Z,73.17
2018-02-10T12:25:44.086Z,80.30
2018-02-10T12:28:10.839Z,73.17
2018-02-10T12:30:37.649Z,84.57
2018-02-10T12:33:04.417Z,95.80
2018-02-10T12:35:31.171Z,65.10
2018-02-10T12:37:57.948Z,71.13
2018-02-10T12:40:25.346Z,64.60
2018-02-10T12:42:52.162Z,65.60
2018-02-10T12:45:19.774Z,66.37
2018-02-10T12:48:02.439Z,81.37
2018-02-10T12:50:29.219Z,41.03
2018-02-10T12:52:56.017Z,72.43
2018-02-10T12:55:22.970Z,78.12
2018-02-10T12:57:49.743Z,72.37
2018-02-10T13:00:16.486Z,75.37
2018-02-10T13:02:43.265Z,62.93
2018-02-10T13:05:10.109Z,79.87
2018-02-10T13:07:36.855Z,71.17
2018-02-10T13:10:03.638Z,76.03
2018-02-10T13:12:30.774Z,69.57
2018-02-10T13:14:57.538Z,65.03
2018-02-10T13:17:24.349Z,74.37
2018-02-10T13:19:51.115Z,76.43
2018-02-10T13:22:17.881Z,76.93
2018-02-10T13:24:44.646Z,80.10
2018-02-10T13:27:11.773Z,67.50
2018-02-10T13:29:38.598Z,84.23
2018-02-10T13:32:05.358Z,74.83
2018-02-10T13:34:32.154Z,77.83
2018-02-10T13:36:58.921Z,65.50
2018-02-10T13:39:26.290Z,76.63
2018-02-10T13:41:53.042Z,67.93
2018-02-10T13:44:19.825Z,65.43
2018-02-10T13:46:47.283Z,82.87
2018-02-10T13:49:14.059Z,76.97
2018-02-10T13:51:40.841Z,68.00
2018-02-10T13:54:07.936Z,66.63
2018-02-10T13:56:35.764Z,100.73
2018-02-10T13:59:02.581Z,65.73
2018-02-10T14:01:30.136Z,75.27
2018-02-10T14:03:56.909Z,68.37
2018-02-10T14:06:23.718Z,57.50
2018-02-10T14:08:50.991Z,69.50
2018-02-10T14:11:18.437Z,71.80
2018-02-10T14:13:45.198Z,54.00
2018-02-10T14:16:12.022Z,61.20
2018-02-10T14:18:39.120Z,56.20
2018-02-10T14:21:05.903Z,49.73
2018-02-10T14:23:32.689Z,59.87
2018-02-10T14:26:00.084Z,54.37
2018-02-10T14:28:26.839Z,49.77
2018-02-10T14:30:54.493Z,58.33
2018-02-10T14:33:21.317Z,56.70
2018-02-10T14:35:48.114Z,57.03
2018-02-10T14:38:14.880Z,58.60
2018-02-10T14:40:41.967Z,64.82
2018-02-10T14:43:08.751Z,55.90
2018-02-10T14:45:35.522Z,63.53
2018-02-10T14:48:02.295Z,58.30
2018-02-10T14:50:30.181Z,59.05
2018-02-10T14:52:56.990Z,59.28
2018-02-10T14:55:23.766Z,68.50
2018-02-10T14:57:50.555Z,62.67
2018-02-10T15:00:17.339Z,55.80
2018-02-10T15:02:45.153Z,58.42
2018-02-10T15:05:12.555Z,61.88
2018-02-10T15:07:39.386Z,60.00
2018-02-10T15:10:07.387Z,68.05
2018-02-10T15:12:34.835Z,63.13
2018-02-10T15:15:02.283Z,49.25
2018-02-10T15:17:29.459Z,52.97
2018-02-10T15:19:56.269Z,54.00
2018-02-10T15:22:23.114Z,58.78
2018-02-10T15:24:49.963Z,57.83
2018-02-10T15:27:17.834Z,59.17
2018-02-10T15:29:50.443Z,59.07
2018-02-10T15:32:22.990Z,55.07
2018-02-10T15:34:55.701Z,56.28
2018-02-10T15:37:22.525Z,70.28
2018-02-10T15:39:49.356Z,57.13
2018-02-10T15:42:16.127Z,62.67
2018-02-10T15:44:42.894Z,54.72
2018-02-10T15:47:09.669Z,64.72
2018-02-10T15:49:37.194Z,46.67
2018-02-10T15:52:03.984Z,74.25
2018-02-10T15:54:31.389Z,66.45
2018-02-10T15:56:58.249Z,60.95
2018-02-10T15:59:25.031Z,62.83
2018-02-10T16:01:51.825Z,80.68
2018-02-10T16:04:18.663Z,65.72
2018-02-10T16:06:45.454Z,62.28
2018-02-10T16:09:12.251Z,62.10
2018-02-10T16:11:39.329Z,58.63
2018-02-10T16:14:06.130Z,56.03
2018-02-10T16:16:32.914Z,51.90
2018-02-10T16:18:59.735Z,54.17
2018-02-10T16:21:26.571Z,54.85
2018-02-10T16:23:53.367Z,53.25
2018-02-10T16:26:20.135Z,49.35
2018-02-10T16:28:46.927Z,58.13
2018-02-10T16:31:13.750Z,52.83
2018-02-10T16:33:40.548Z,50.20
2018-02-10T16:36:07.323Z,44.10
2018-02-10T16:38:34.173Z,41.33
2018-02-10T16:41:00.991Z,43.17
2018-02-10T16:43:27.773Z,45.65
2018-02-10T16:45:55.211Z,39.97
2018-02-10T16:48:22.001Z,38.75
2018-02-10T16:50:48.768Z,39.65
2018-02-10T16:53:15.559Z,53.67
2018-02-10T16:55:42.339Z,47.88
2018-02-10T16:58:09.114Z,38.63
2018-02-10T17:00:35.896Z,39.13
2018-02-10T17:03:02.734Z,37.42
2018-02-10T17:05:29.506Z,34.63
2018-02-10T17:07:56.303Z,24.92
2018-02-10T17:10:23.085Z,26.92
2018-02-10T17:12:50.228Z,29.67
2018-02-10T17:15:17.008Z,36.45
2018-02-10T17:17:43.822Z,32.67
2018-02-10T17:20:11.152Z,35.95
2018-02-10T17:22:38.602Z,33.28
2018-02-10T17:25:05.394Z,22.02
2018-02-10T17:27:32.172Z,35.90
2018-02-10T17:29:58.957Z,43.67
2018-02-10T17:32:26.664Z,42.28
2018-02-10T17:34:53.486Z,32.03
2018-02-10T17:37:20.366Z,34.10
2018-02-10T17:39:47.190Z,35.20
2018-02-10T17:42:13.951Z,31.25
2018-02-10T17:44:40.753Z,38.50
2018-02-10T17:47:07.532Z,40.58
2018-02-10T17:49:34.328Z,34.75
2018-02-10T17:52:01.839Z,40.60
2018-02-10T17:54:29.412Z,35.05
2018-02-10T17:56:56.194Z,34.90
2018-02-10T17:59:23.321Z,27.95
2018-02-10T18:01:50.777Z,41.97
2018-02-10T18:04:17.537Z,41.37
2018-02-10T18:06:45.038Z,36.38
2018-02-10T18:09:11.845Z,31.50
2018-02-10T18:11:38.695Z,35.03
2018-02-10T18:14:05.462Z,23.50
2018-02-10T18:16:32.265Z,34.42
2018-02-10T18:18:59.704Z,32.70
2018-02-10T18:21:26.825Z,39.50
2018-02-10T18:23:53.619Z,37.85
2018-02-10T18:26:20.414Z,33.88
2018-02-10T18:28:47.241Z,35.78
2018-02-10T18:31:14.051Z,27.07
2018-02-10T18:33:40.831Z,44.22
2018-02-10T18:36:07.632Z,34.73
2018-02-10T18:38:34.397Z,33.60
2018-02-10T18:41:01.178Z,28.87
2018-02-10T18:43:27.961Z,37.25
2018-02-10T18:45:54.773Z,38.83
2018-02-10T18:48:21.559Z,40.12
2018-02-10T18:50:48.331Z,39.87
2018-02-10T18:53:15.204Z,35.88
2018-02-10T18:55:42.002Z,44.28
2018-02-10T18:58:08.760Z,40.88
2018-02-10T19:00:36.549Z,47.95
2018-02-10T19:03:03.362Z,44.60
2018-02-10T19:05:30.149Z,52.75
2018-02-10T19:07:56.908Z,44.90
2018-02-10T19:10:24.058Z,51.33
2018-02-10T19:12:50.830Z,46.17
2018-02-10T19:15:18.325Z,56.57
2018-02-10T19:17:45.130Z,58.90
2018-02-10T19:20:11.964Z,50.77
2018-02-10T19:22:39.347Z,53.72
2018-02-10T19:25:06.511Z,37.20
2018-02-10T19:27:33.326Z,41.80
2018-02-10T19:30:00.100Z,37.93
2018-02-10T19:32:27.292Z,44.17
2018-02-10T19:34:54.677Z,54.40
2018-02-10T19:37:21.490Z,48.97
2018-02-10T19:39:48.279Z,51.25
2018-02-10T19:42:15.094Z,52.25
2018-02-10T19:44:42.058Z,43.47
2018-02-10T19:47:08.902Z,45.85
2018-02-10T19:49:36.373Z,53.67
2018-02-10T19:52:04.194Z,44.95
2018-02-10T19:54:31.018Z,49.88
2018-02-10T19:56:57.810Z,38.53
2018-02-10T19:59:25.045Z,42.50
2018-02-10T20:01:51.823Z,35.63
2018-02-10T20:04:18.638Z,48.70
2018-02-10T20:06:45.430Z,45.60
2018-02-10T20:09:12.193Z,41.63
2018-02-10T20:11:38.997Z,40.97
2018-02-10T20:14:06.473Z,44.80
2018-02-10T20:16:33.247Z,38.73
2018-02-10T20:19:00.012Z,31.75
2018-02-10T20:21:26.832Z,35.30
2018-02-10T20:23:53.615Z,34.67
2018-02-10T20:26:20.391Z,39.17
2018-02-10T20:28:47.209Z,47.35
2018-02-10T20:31:14.702Z,45.87
2018-02-10T20:33:41.898Z,49.28
2018-02-10T20:36:08.675Z,46.58
2018-02-10T20:38:35.738Z,41.45
2018-02-10T20:41:02.522Z,48.67
2018-02-10T20:43:29.303Z,39.97
2018-02-10T20:45:56.120Z,56.05
2018-02-10T20:48:22.888Z,41.92
2018-02-10T20:50:49.680Z,49.30
2018-02-10T20:53:16.476Z,63.00
2018-02-10T20:55:43.283Z,42.90
2018-02-10T20:58:10.055Z,34.83
2018-02-10T21:00:36.827Z,43.92
2018-02-10T21:03:04.686Z,34.55
2018-02-10T21:05:31.484Z,39.20
2018-02-10T21:07:58.257Z,38.17
2018-02-10T21:10:25.054Z,41.90
2018-02-10T21:12:51.838Z,29.85
2018-02-10T21:15:18.718Z,48.43
2018-02-10T21:17:46.208Z,52.53
2018-02-10T21:20:13.020Z,41.03
2018-02-10T21:22:39.815Z,37.42
2018-02-10T21:25:07.197Z,37.03
2018-02-10T21:27:33.974Z,39.25
2018-02-10T21:30:00.755Z,42.67
2018-02-10T21:32:27.833Z,53.27
2018-02-10T21:34:54.622Z,47.07
2018-02-10T21:37:21.425Z,54.92
2018-02-10T21:39:48.660Z,47.95
2018-02-10T21:42:15.462Z,48.45
2018-02-10T21:44:42.286Z,45.42
2018-02-10T21:47:09.086Z,50.50
2018-02-10T21:49:35.866Z,54.08
2018-02-10T21:52:02.648Z,37.85
2018-02-10T21:54:29.809Z,30.37
2018-02-10T21:56:57.303Z,48.65
2018-02-10T21:59:24.184Z,39.63
2018-02-10T22:01:50.941Z,43.10
2018-02-10T22:04:17.708Z,42.58
2018-02-10T22:06:45.469Z,34.90
2018-02-10T22:09:12.261Z,53.63
2018-02-10T22:11:39.074Z,48.33
2018-02-10T22:14:05.855Z,39.77
2018-02-10T22:16:33.230Z,32.90
2018-02-10T22:19:00.009Z,39.75
2018-02-10T22:21:26.810Z,44.38
2018-02-10T22:23:53.558Z,45.03
2018-02-10T22:26:20.334Z,27.80
2018-02-10T22:28:47.131Z,36.47
2018-02-10T22:31:13.919Z,38.75
2018-02-10T22:33:40.697Z,63.92
2018-02-10T22:36:07.506Z,44.17
2018-02-10T22:38:34.263Z,45.70
2018-02-10T22:41:01.027Z,36.78
2018-02-10T22:43:28.603Z,43.00
2018-02-10T22:45:55.400Z,32.42
2018-02-10T22:48:22.168Z,48.22
2018-02-10T22:50:48.931Z,36.15
2018-02-10T22:53:15.707Z,36.90
2018-02-10T22:55:42.471Z,45.22
2018-02-10T22:58:09.239Z,34.33
2018-02-10T23:00:36.046Z,56.40
2018-02-10T23:03:03.186Z,50.10
2018-02-10T23:05:29.939Z,42.83
2018-02-10T23:07:56.706Z,32.28
2018-02-10T23:10:23.470Z,42.65
2018-02-10T23:12:50.315Z,36.28
2018-02-10T23:15:17.093Z,31.60
2018-02-10T23:17:43.874Z,46.10
2018-02-10T23:20:10.691Z,39.10
2018-02-10T23:22:37.485Z,38.55
2018-02-10T23:25:04.255Z,49.15
2018-02-10T23:27:31.661Z,23.10
2018-02-10T23:29:58.439Z,25.97
2018-02-10T23:32:25.242Z,34.10
2018-02-10T23:34:52.033Z,32.22
2018-02-10T23:37:18.842Z,35.53
2018-02-10T23:39:45.635Z,41.72
2018-02-10T23:42:12.423Z,35.55
2018-02-10T23:44:39.211Z,40.70
2018-02-10T23:47:05.990Z,44.28
2018-02-10T23:49:32.794Z,31.75
2018-02-10T23:51:59.574Z,38.22
2018-02-10T23:54:26.658Z,41.97
2018-02-10T23:56:53.437Z,29.10
2018-02-10T23:59:20.223Z,31.27
